sensor_id;sensor_type;location;lat;lon;timestamp;pressure;altitude;pressure_sealevel;temperature;humidity
65054;BME280;51639;47.828;35.038;2023-02-12T00:10:16;100531.38;;;1.92;100.00
65054;BME280;51639;47.828;35.038;2023-02-12T00:25:18;100501.31;;;1.98;100.00
65054;BME280;51639;47.828;35.038;2023-02-12T00:40:20;100487.81;;;1.76;100.00
65054;BME280;51639;47.828;35.038;2023-02-12T00:55:22;100455.19;;;1.70;100.00
65054;BME280;51639;47.828;35.038;2023-02-12T01:10:24;100432.56;;;1.67;100.00
65054;BME280;51639;47.828;35.038;2023-02-12T01:25:26;100392.56;;;1.55;100.00
65054;BME280;51639;47.828;35.038;2023-02-12T01:40:29;100378.13;;;1.60;100.00
65054;BME280;51639;47.828;35.038;2023-02-12T01:55:31;100367.47;;;1.44;100.00
65054;BME280;51639;47.828;35.038;2023-02-12T02:10:33;100374.53;;;1.52;100.00
65054;BME280;51639;47.828;35.038;2023-02-12T02:41:05;100380.31;;;1.54;100.00
65054;BME280;51639;47.828;35.038;2023-02-12T02:56:13;100389.44;;;1.53;100.00
65054;BME280;51639;47.828;35.038;2023-02-12T03:11:26;100365.44;;;1.57;100.00
65054;BME280;51639;47.828;35.038;2023-02-12T03:26:45;100352.00;;;1.53;100.00
65054;BME280;51639;47.828;35.038;2023-02-12T03:57:21;100331.22;;;1.47;100.00
65054;BME280;51639;47.828;35.038;2023-02-12T04:12:51;100315.38;;;1.57;100.00
65054;BME280;51639;47.828;35.038;2023-02-12T04:43:11;100316.88;;;1.20;100.00
65054;BME280;51639;47.828;35.038;2023-02-12T04:58:13;100309.38;;;0.90;100.00
65054;BME280;51639;47.828;35.038;2023-02-12T05:13:16;100297.00;;;0.66;100.00
65054;BME280;51639;47.828;35.038;2023-02-12T05:28:17;100307.16;;;0.61;100.00
65054;BME280;51639;47.828;35.038;2023-02-12T05:43:19;100314.31;;;0.73;100.00
65054;BME280;51639;47.828;35.038;2023-02-12T05:58:22;100316.72;;;0.78;100.00
65054;BME280;51639;47.828;35.038;2023-02-12T06:13:24;100293.63;;;0.54;100.00
65054;BME280;51639;47.828;35.038;2023-02-12T06:28:25;100312.91;;;0.79;100.00
65054;BME280;51639;47.828;35.038;2023-02-12T06:43:27;100304.19;;;0.97;100.00
65054;BME280;51639;47.828;35.038;2023-02-12T06:58:30;100310.03;;;1.38;100.00
65054;BME280;51639;47.828;35.038;2023-02-12T07:13:32;100334.38;;;1.52;100.00
65054;BME280;51639;47.828;35.038;2023-02-12T07:28:38;100329.03;;;1.71;100.00
65054;BME280;51639;47.828;35.038;2023-02-12T07:43:41;100343.94;;;1.92;100.00
65054;BME280;51639;47.828;35.038;2023-02-12T07:58:45;100338.75;;;1.99;100.00
65054;BME280;51639;47.828;35.038;2023-02-12T08:13:48;100362.06;;;2.40;100.00
65054;BME280;51639;47.828;35.038;2023-02-12T08:28:53;100374.16;;;3.26;100.00
65054;BME280;51639;47.828;35.038;2023-02-12T08:43:59;100415.16;;;3.53;100.00
65054;BME280;51639;47.828;35.038;2023-02-12T08:59:04;100429.66;;;3.48;100.00
65054;BME280;51639;47.828;35.038;2023-02-12T09:14:09;100463.31;;;3.42;100.00
65054;BME280;51639;47.828;35.038;2023-02-12T09:29:11;100505.56;;;5.49;100.00
65054;BME280;51639;47.828;35.038;2023-02-12T09:44:21;100520.09;;;6.76;100.00
65054;BME280;51639;47.828;35.038;2023-02-12T09:59:31;100540.97;;;7.07;95.90
65054;BME280;51639;47.828;35.038;2023-02-12T10:29:46;100572.50;;;5.51;90.90
65054;BME280;51639;47.828;35.038;2023-02-12T10:44:49;100599.69;;;5.79;82.42
65054;BME280;51639;47.828;35.038;2023-02-12T10:59:54;100603.59;;;5.04;82.48
65054;BME280;51639;47.828;35.038;2023-02-12T11:14:59;100618.16;;;4.10;91.08
65054;BME280;51639;47.828;35.038;2023-02-12T11:30:20;100638.38;;;4.87;82.15
65054;BME280;51639;47.828;35.038;2023-02-12T11:45:30;100678.66;;;3.35;100.00
65054;BME280;51639;47.828;35.038;2023-02-12T12:00:38;100716.75;;;3.22;83.75
65054;BME280;51639;47.828;35.038;2023-02-12T12:15:45;100703.63;;;4.01;77.95
65054;BME280;51639;47.828;35.038;2023-02-12T12:31:14;100706.47;;;4.91;70.33
65054;BME280;51639;47.828;35.038;2023-02-12T13:01:43;100727.50;;;2.52;100.00
65054;BME280;51639;47.828;35.038;2023-02-12T13:16:59;100732.38;;;2.30;89.73
65054;BME280;51639;47.828;35.038;2023-02-12T13:32:24;100755.69;;;2.46;86.39
65054;BME280;51639;47.828;35.038;2023-02-12T13:47:54;100768.69;;;2.12;98.97
65054;BME280;51639;47.828;35.038;2023-02-12T14:03:07;100799.66;;;1.97;100.00
65054;BME280;51639;47.828;35.038;2023-02-12T14:18:27;100820.47;;;1.88;89.37
65054;BME280;51639;47.828;35.038;2023-02-12T14:33:29;100838.31;;;1.56;100.00
65054;BME280;51639;47.828;35.038;2023-02-12T14:48:50;100868.03;;;1.39;100.00
65054;BME280;51639;47.828;35.038;2023-02-12T15:03:56;100893.44;;;1.33;100.00
65054;BME280;51639;47.828;35.038;2023-02-12T15:34:40;100942.25;;;1.30;100.00
65054;BME280;51639;47.828;35.038;2023-02-12T15:49:43;100955.41;;;1.23;100.00
65054;BME280;51639;47.828;35.038;2023-02-12T16:04:46;100972.91;;;1.32;100.00
65054;BME280;51639;47.828;35.038;2023-02-12T16:20:41;100991.63;;;1.20;100.00
65054;BME280;51639;47.828;35.038;2023-02-12T16:35:30;101010.78;;;1.22;100.00
65054;BME280;51639;47.828;35.038;2023-02-12T16:50:34;101023.16;;;1.15;100.00
65054;BME280;51639;47.828;35.038;2023-02-12T17:05:40;101034.41;;;0.75;100.00
65054;BME280;51639;47.828;35.038;2023-02-12T17:20:50;101044.31;;;0.75;100.00
65054;BME280;51639;47.828;35.038;2023-02-12T17:35:57;101048.41;;;0.93;100.00
65054;BME280;51639;47.828;35.038;2023-02-12T17:50:59;101061.41;;;0.82;100.00
65054;BME280;51639;47.828;35.038;2023-02-12T18:06:02;101077.63;;;0.77;100.00
65054;BME280;51639;47.828;35.038;2023-02-12T18:21:09;101081.50;;;0.67;100.00
65054;BME280;51639;47.828;35.038;2023-02-12T18:36:14;101096.50;;;0.60;100.00
65054;BME280;51639;47.828;35.038;2023-02-12T18:51:21;101101.47;;;0.70;100.00
65054;BME280;51639;47.828;35.038;2023-02-12T19:06:29;101124.91;;;0.64;100.00
65054;BME280;51639;47.828;35.038;2023-02-12T19:21:31;101129.34;;;0.60;100.00
65054;BME280;51639;47.828;35.038;2023-02-12T19:36:34;101138.00;;;0.78;100.00
65054;BME280;51639;47.828;35.038;2023-02-12T19:51:37;101162.59;;;0.21;100.00
65054;BME280;51639;47.828;35.038;2023-02-12T20:06:41;101167.13;;;0.50;100.00
65054;BME280;51639;47.828;35.038;2023-02-12T20:21:44;101160.47;;;0.06;100.00
65054;BME280;51639;47.828;35.038;2023-02-12T20:36:49;101177.22;;;0.15;100.00
65054;BME280;51639;47.828;35.038;2023-02-12T20:51:51;101179.25;;;0.18;100.00
65054;BME280;51639;47.828;35.038;2023-02-12T21:06:53;101186.88;;;0.28;100.00
65054;BME280;51639;47.828;35.038;2023-02-12T21:21:55;101196.56;;;0.12;100.00
65054;BME280;51639;47.828;35.038;2023-02-12T21:36:57;101201.66;;;-0.04;100.00
65054;BME280;51639;47.828;35.038;2023-02-12T21:52:02;101216.25;;;-0.01;100.00
65054;BME280;51639;47.828;35.038;2023-02-12T22:07:04;101220.66;;;-0.05;100.00
65054;BME280;51639;47.828;35.038;2023-02-12T22:22:06;101237.31;;;-0.08;100.00
65054;BME280;51639;47.828;35.038;2023-02-12T22:37:08;101241.56;;;-0.16;100.00
65054;BME280;51639;47.828;35.038;2023-02-12T22:52:27;101248.63;;;-0.11;100.00
65054;BME280;51639;47.828;35.038;2023-02-12T23:07:29;101267.81;;;-0.44;100.00
65054;BME280;51639;47.828;35.038;2023-02-12T23:22:31;101274.25;;;-0.36;100.00
65054;BME280;51639;47.828;35.038;2023-02-12T23:37:33;101294.97;;;-0.59;100.00
65054;BME280;51639;47.828;35.038;2023-02-12T23:52:34;101312.69;;;-0.97;100.00
